sensor_id;sensor_type;location;lat;lon;timestamp;P1;durP1;ratioP1;P2;durP2;ratioP2
80578;SDS011;69939;52.402;6.608;2023-05-10T00:00:01;0.60;;;0.60;;
80578;SDS011;69939;52.402;6.608;2023-05-10T00:02:31;0.80;;;0.60;;
80578;SDS011;69939;52.402;6.608;2023-05-10T00:04:59;0.68;;;0.68;;
80578;SDS011;69939;52.402;6.608;2023-05-10T00:07:25;0.55;;;0.52;;
80578;SDS011;69939;52.402;6.608;2023-05-10T00:09:53;0.70;;;0.70;;
80578;SDS011;69939;52.402;6.608;2023-05-10T00:12:20;0.63;;;0.60;;
80578;SDS011;69939;52.402;6.608;2023-05-10T00:14:47;0.98;;;0.60;;
80578;SDS011;69939;52.402;6.608;2023-05-10T00:17:14;0.50;;;0.50;;
80578;SDS011;69939;52.402;6.608;2023-05-10T00:19:42;0.50;;;0.50;;
80578;SDS011;69939;52.402;6.608;2023-05-10T00:22:17;0.68;;;0.68;;
80578;SDS011;69939;52.402;6.608;2023-05-10T00:24:44;0.70;;;0.70;;
80578;SDS011;69939;52.402;6.608;2023-05-10T00:27:12;0.65;;;0.65;;
80578;SDS011;69939;52.402;6.608;2023-05-10T00:29:39;0.70;;;0.70;;
80578;SDS011;69939;52.402;6.608;2023-05-10T00:32:06;0.60;;;0.60;;
80578;SDS011;69939;52.402;6.608;2023-05-10T00:34:32;0.80;;;0.80;;
80578;SDS011;69939;52.402;6.608;2023-05-10T00:37:02;0.95;;;0.95;;
80578;SDS011;69939;52.402;6.608;2023-05-10T00:39:29;0.75;;;0.75;;
80578;SDS011;69939;52.402;6.608;2023-05-10T00:41:55;0.73;;;0.73;;
80578;SDS011;69939;52.402;6.608;2023-05-10T00:44:25;0.73;;;0.73;;
80578;SDS011;69939;52.402;6.608;2023-05-10T00:46:52;0.70;;;0.70;;
80578;SDS011;69939;52.402;6.608;2023-05-10T00:49:20;0.63;;;0.63;;
80578;SDS011;69939;52.402;6.608;2023-05-10T00:51:47;0.70;;;0.70;;
80578;SDS011;69939;52.402;6.608;2023-05-10T00:54:16;0.68;;;0.68;;
80578;SDS011;69939;52.402;6.608;2023-05-10T00:56:43;1.10;;;1.00;;
80578;SDS011;69939;52.402;6.608;2023-05-10T00:59:15;1.00;;;1.00;;
80578;SDS011;69939;52.402;6.608;2023-05-10T01:01:52;0.80;;;0.77;;
80578;SDS011;69939;52.402;6.608;2023-05-10T01:04:19;0.63;;;0.63;;
80578;SDS011;69939;52.402;6.608;2023-05-10T01:06:50;0.70;;;0.70;;
80578;SDS011;69939;52.402;6.608;2023-05-10T01:09:20;0.45;;;0.45;;
80578;SDS011;69939;52.402;6.608;2023-05-10T01:11:48;0.90;;;0.90;;
80578;SDS011;69939;52.402;6.608;2023-05-10T01:14:17;0.52;;;0.52;;
80578;SDS011;69939;52.402;6.608;2023-05-10T01:16:47;0.98;;;0.88;;
80578;SDS011;69939;52.402;6.608;2023-05-10T01:19:17;0.80;;;0.80;;
80578;SDS011;69939;52.402;6.608;2023-05-10T01:21:49;0.80;;;0.80;;
80578;SDS011;69939;52.402;6.608;2023-05-10T01:24:37;0.90;;;0.90;;
80578;SDS011;69939;52.402;6.608;2023-05-10T01:27:59;0.70;;;0.70;;
80578;SDS011;69939;52.402;6.608;2023-05-10T01:31:02;0.68;;;0.68;;
80578;SDS011;69939;52.402;6.608;2023-05-10T01:33:46;0.90;;;0.85;;
80578;SDS011;69939;52.402;6.608;2023-05-10T01:36:23;1.00;;;0.90;;
80578;SDS011;69939;52.402;6.608;2023-05-10T01:38:58;0.90;;;0.80;;
80578;SDS011;69939;52.402;6.608;2023-05-10T01:41:36;1.10;;;1.00;;
80578;SDS011;69939;52.402;6.608;2023-05-10T01:44:17;0.90;;;0.77;;
80578;SDS011;69939;52.402;6.608;2023-05-10T01:46:53;0.75;;;0.75;;
80578;SDS011;69939;52.402;6.608;2023-05-10T01:49:30;1.00;;;1.00;;
80578;SDS011;69939;52.402;6.608;2023-05-10T01:52:06;0.60;;;0.60;;
80578;SDS011;69939;52.402;6.608;2023-05-10T01:54:40;0.80;;;0.80;;
80578;SDS011;69939;52.402;6.608;2023-05-10T01:57:28;0.73;;;0.73;;
80578;SDS011;69939;52.402;6.608;2023-05-10T02:00:01;0.82;;;0.82;;
80578;SDS011;69939;52.402;6.608;2023-05-10T02:02:30;0.80;;;0.80;;
80578;SDS011;69939;52.402;6.608;2023-05-10T02:05:05;1.02;;;0.88;;
80578;SDS011;69939;52.402;6.608;2023-05-10T02:07:35;0.70;;;0.70;;
80578;SDS011;69939;52.402;6.608;2023-05-10T02:10:04;1.15;;;0.90;;
80578;SDS011;69939;52.402;6.608;2023-05-10T02:12:36;1.02;;;1.00;;
80578;SDS011;69939;52.402;6.608;2023-05-10T02:15:08;0.93;;;0.82;;
80578;SDS011;69939;52.402;6.608;2023-05-10T02:17:41;0.60;;;0.60;;
80578;SDS011;69939;52.402;6.608;2023-05-10T02:20:10;0.90;;;0.90;;
80578;SDS011;69939;52.402;6.608;2023-05-10T02:22:42;0.90;;;0.88;;
80578;SDS011;69939;52.402;6.608;2023-05-10T02:25:15;0.73;;;0.73;;
80578;SDS011;69939;52.402;6.608;2023-05-10T02:27:45;0.90;;;0.90;;
80578;SDS011;69939;52.402;6.608;2023-05-10T02:30:15;0.80;;;0.80;;
80578;SDS011;69939;52.402;6.608;2023-05-10T02:35:14;0.73;;;0.73;;
80578;SDS011;69939;52.402;6.608;2023-05-10T02:37:45;0.80;;;0.80;;
80578;SDS011;69939;52.402;6.608;2023-05-10T02:40:16;0.88;;;0.80;;
80578;SDS011;69939;52.402;6.608;2023-05-10T02:42:44;0.80;;;0.80;;
80578;SDS011;69939;52.402;6.608;2023-05-10T02:45:17;0.80;;;0.77;;
80578;SDS011;69939;52.402;6.608;2023-05-10T02:47:48;0.70;;;0.70;;
80578;SDS011;69939;52.402;6.608;2023-05-10T02:50:17;0.90;;;0.90;;
80578;SDS011;69939;52.402;6.608;2023-05-10T02:52:49;1.10;;;1.00;;
80578;SDS011;69939;52.402;6.608;2023-05-10T02:55:19;0.70;;;0.70;;
80578;SDS011;69939;52.402;6.608;2023-05-10T02:57:51;0.85;;;0.85;;
80578;SDS011;69939;52.402;6.608;2023-05-10T03:00:28;1.02;;;0.93;;
80578;SDS011;69939;52.402;6.608;2023-05-10T03:02:55;0.98;;;0.88;;
80578;SDS011;69939;52.402;6.608;2023-05-10T03:05:25;0.80;;;0.80;;
80578;SDS011;69939;52.402;6.608;2023-05-10T03:10:20;0.90;;;0.90;;
80578;SDS011;69939;52.402;6.608;2023-05-10T03:12:59;1.17;;;1.08;;
80578;SDS011;69939;52.402;6.608;2023-05-10T03:15:42;0.85;;;0.85;;
80578;SDS011;69939;52.402;6.608;2023-05-10T03:18:22;0.80;;;0.80;;
80578;SDS011;69939;52.402;6.608;2023-05-10T03:20:57;1.10;;;1.00;;
80578;SDS011;69939;52.402;6.608;2023-05-10T03:23:33;1.10;;;1.00;;
80578;SDS011;69939;52.402;6.608;2023-05-10T03:26:04;0.95;;;0.95;;
80578;SDS011;69939;52.402;6.608;2023-05-10T03:28:34;1.63;;;1.38;;
80578;SDS011;69939;52.402;6.608;2023-05-10T03:31:02;0.98;;;0.98;;
80578;SDS011;69939;52.402;6.608;2023-05-10T03:33:32;1.27;;;1.17;;
80578;SDS011;69939;52.402;6.608;2023-05-10T03:36:00;1.45;;;1.35;;
80578;SDS011;69939;52.402;6.608;2023-05-10T03:38:27;1.27;;;1.17;;
80578;SDS011;69939;52.402;6.608;2023-05-10T03:40:56;1.73;;;1.50;;
80578;SDS011;69939;52.402;6.608;2023-05-10T03:43:23;1.50;;;1.30;;
80578;SDS011;69939;52.402;6.608;2023-05-10T03:45:50;1.10;;;1.00;;
80578;SDS011;69939;52.402;6.608;2023-05-10T03:48:18;1.40;;;1.30;;
80578;SDS011;69939;52.402;6.608;2023-05-10T03:50:47;1.40;;;1.30;;
80578;SDS011;69939;52.402;6.608;2023-05-10T03:53:17;1.40;;;1.30;;
80578;SDS011;69939;52.402;6.608;2023-05-10T03:55:45;1.50;;;1.38;;
80578;SDS011;69939;52.402;6.608;2023-05-10T03:58:12;1.45;;;1.35;;
80578;SDS011;69939;52.402;6.608;2023-05-10T04:00:39;1.60;;;1.50;;
80578;SDS011;69939;52.402;6.608;2023-05-10T04:03:08;1.67;;;1.58;;
80578;SDS011;69939;52.402;6.608;2023-05-10T04:05:36;1.63;;;1.50;;
80578;SDS011;69939;52.402;6.608;2023-05-10T04:08:03;1.40;;;1.30;;
80578;SDS011;69939;52.402;6.608;2023-05-10T04:10:32;1.90;;;1.63;;
80578;SDS011;69939;52.402;6.608;2023-05-10T04:12:58;1.65;;;1.55;;
80578;SDS011;69939;52.402;6.608;2023-05-10T04:15:25;1.80;;;1.70;;
80578;SDS011;69939;52.402;6.608;2023-05-10T04:17:52;1.70;;;1.60;;
80578;SDS011;69939;52.402;6.608;2023-05-10T04:20:19;1.73;;;1.63;;
80578;SDS011;69939;52.402;6.608;2023-05-10T04:22:46;1.90;;;1.80;;
80578;SDS011;69939;52.402;6.608;2023-05-10T04:25:17;1.70;;;1.60;;
80578;SDS011;69939;52.402;6.608;2023-05-10T04:27:48;2.55;;;1.83;;
80578;SDS011;69939;52.402;6.608;2023-05-10T04:30:15;2.10;;;1.98;;
80578;SDS011;69939;52.402;6.608;2023-05-10T04:32:42;2.10;;;1.90;;
80578;SDS011;69939;52.402;6.608;2023-05-10T04:35:09;2.00;;;1.90;;
80578;SDS011;69939;52.402;6.608;2023-05-10T04:37:37;2.08;;;1.88;;
80578;SDS011;69939;52.402;6.608;2023-05-10T04:40:04;3.38;;;2.20;;
80578;SDS011;69939;52.402;6.608;2023-05-10T04:42:33;2.10;;;2.00;;
80578;SDS011;69939;52.402;6.608;2023-05-10T04:45:02;2.20;;;2.00;;
80578;SDS011;69939;52.402;6.608;2023-05-10T04:47:30;2.22;;;2.03;;
80578;SDS011;69939;52.402;6.608;2023-05-10T04:49:57;2.60;;;2.40;;
80578;SDS011;69939;52.402;6.608;2023-05-10T04:52:25;2.72;;;2.53;;
80578;SDS011;69939;52.402;6.608;2023-05-10T04:54:53;2.08;;;1.88;;
80578;SDS011;69939;52.402;6.608;2023-05-10T04:57:20;2.28;;;2.10;;
80578;SDS011;69939;52.402;6.608;2023-05-10T04:59:47;2.38;;;2.17;;
80578;SDS011;69939;52.402;6.608;2023-05-10T05:02:15;2.22;;;2.03;;
80578;SDS011;69939;52.402;6.608;2023-05-10T05:04:42;2.15;;;1.95;;
80578;SDS011;69939;52.402;6.608;2023-05-10T05:07:09;3.13;;;2.38;;
80578;SDS011;69939;52.402;6.608;2023-05-10T05:09:36;2.15;;;1.95;;
80578;SDS011;69939;52.402;6.608;2023-05-10T05:12:02;3.03;;;2.83;;
80578;SDS011;69939;52.402;6.608;2023-05-10T05:14:31;3.15;;;2.58;;
80578;SDS011;69939;52.402;6.608;2023-05-10T05:16:58;2.38;;;2.08;;
80578;SDS011;69939;52.402;6.608;2023-05-10T05:19:31;1.92;;;1.75;;
80578;SDS011;69939;52.402;6.608;2023-05-10T05:21:58;2.75;;;2.42;;
80578;SDS011;69939;52.402;6.608;2023-05-10T05:24:25;2.50;;;2.30;;
80578;SDS011;69939;52.402;6.608;2023-05-10T05:26:51;2.10;;;1.70;;
80578;SDS011;69939;52.402;6.608;2023-05-10T05:29:21;2.97;;;2.67;;
80578;SDS011;69939;52.402;6.608;2023-05-10T05:31:48;2.95;;;2.70;;
80578;SDS011;69939;52.402;6.608;2023-05-10T05:34:15;2.75;;;2.53;;
80578;SDS011;69939;52.402;6.608;2023-05-10T05:36:44;3.10;;;2.58;;
80578;SDS011;69939;52.402;6.608;2023-05-10T05:39:12;2.80;;;2.47;;
80578;SDS011;69939;52.402;6.608;2023-05-10T05:41:40;3.58;;;3.28;;
80578;SDS011;69939;52.402;6.608;2023-05-10T05:44:08;4.40;;;3.00;;
80578;SDS011;69939;52.402;6.608;2023-05-10T05:46:35;3.35;;;2.80;;
80578;SDS011;69939;52.402;6.608;2023-05-10T05:49:01;3.78;;;3.15;;
80578;SDS011;69939;52.402;6.608;2023-05-10T05:51:28;2.72;;;2.20;;
80578;SDS011;69939;52.402;6.608;2023-05-10T05:53:57;3.15;;;2.17;;
80578;SDS011;69939;52.402;6.608;2023-05-10T05:56:24;3.47;;;2.78;;
80578;SDS011;69939;52.402;6.608;2023-05-10T05:58:51;4.75;;;3.85;;
80578;SDS011;69939;52.402;6.608;2023-05-10T06:01:21;4.13;;;3.50;;
80578;SDS011;69939;52.402;6.608;2023-05-10T06:03:48;3.15;;;2.70;;
80578;SDS011;69939;52.402;6.608;2023-05-10T06:06:15;3.20;;;2.55;;
80578;SDS011;69939;52.402;6.608;2023-05-10T06:08:41;3.83;;;3.10;;
80578;SDS011;69939;52.402;6.608;2023-05-10T06:11:09;3.90;;;2.58;;
80578;SDS011;69939;52.402;6.608;2023-05-10T06:13:36;5.15;;;3.03;;
80578;SDS011;69939;52.402;6.608;2023-05-10T06:16:03;3.42;;;2.58;;
80578;SDS011;69939;52.402;6.608;2023-05-10T06:18:30;4.03;;;3.50;;
80578;SDS011;69939;52.402;6.608;2023-05-10T06:20:57;3.55;;;2.67;;
80578;SDS011;69939;52.402;6.608;2023-05-10T06:23:24;2.83;;;2.53;;
80578;SDS011;69939;52.402;6.608;2023-05-10T06:25:51;5.95;;;3.33;;
80578;SDS011;69939;52.402;6.608;2023-05-10T06:28:22;5.30;;;4.47;;
80578;SDS011;69939;52.402;6.608;2023-05-10T06:30:48;5.32;;;3.92;;
80578;SDS011;69939;52.402;6.608;2023-05-10T06:33:15;6.05;;;4.88;;
80578;SDS011;69939;52.402;6.608;2023-05-10T06:35:42;6.60;;;5.35;;
80578;SDS011;69939;52.402;6.608;2023-05-10T06:38:08;5.53;;;3.95;;
80578;SDS011;69939;52.402;6.608;2023-05-10T06:40:35;4.85;;;3.90;;
80578;SDS011;69939;52.402;6.608;2023-05-10T06:43:02;6.13;;;4.53;;
80578;SDS011;69939;52.402;6.608;2023-05-10T06:45:30;5.70;;;4.22;;
80578;SDS011;69939;52.402;6.608;2023-05-10T06:47:57;4.72;;;3.85;;
80578;SDS011;69939;52.402;6.608;2023-05-10T06:50:24;5.25;;;4.65;;
80578;SDS011;69939;52.402;6.608;2023-05-10T06:52:51;3.33;;;2.72;;
80578;SDS011;69939;52.402;6.608;2023-05-10T06:55:18;6.43;;;4.95;;
80578;SDS011;69939;52.402;6.608;2023-05-10T06:57:45;2.53;;;2.05;;
80578;SDS011;69939;52.402;6.608;2023-05-10T07:00:12;4.80;;;4.30;;
80578;SDS011;69939;52.402;6.608;2023-05-10T07:02:41;4.25;;;3.47;;
80578;SDS011;69939;52.402;6.608;2023-05-10T07:05:08;2.15;;;1.98;;
80578;SDS011;69939;52.402;6.608;2023-05-10T07:07:35;4.97;;;4.15;;
80578;SDS011;69939;52.402;6.608;2023-05-10T07:10:02;3.97;;;3.58;;
80578;SDS011;69939;52.402;6.608;2023-05-10T07:12:29;3.35;;;2.70;;
80578;SDS011;69939;52.402;6.608;2023-05-10T07:15:03;4.00;;;3.60;;
80578;SDS011;69939;52.402;6.608;2023-05-10T07:17:31;3.03;;;2.20;;
80578;SDS011;69939;52.402;6.608;2023-05-10T07:19:59;6.05;;;4.40;;
80578;SDS011;69939;52.402;6.608;2023-05-10T07:22:27;2.60;;;2.38;;
80578;SDS011;69939;52.402;6.608;2023-05-10T07:24:54;5.90;;;4.72;;
80578;SDS011;69939;52.402;6.608;2023-05-10T07:27:21;6.32;;;4.70;;
80578;SDS011;69939;52.402;6.608;2023-05-10T07:29:47;4.72;;;4.20;;
80578;SDS011;69939;52.402;6.608;2023-05-10T07:32:17;4.13;;;3.70;;
80578;SDS011;69939;52.402;6.608;2023-05-10T07:34:44;5.00;;;4.18;;
80578;SDS011;69939;52.402;6.608;2023-05-10T07:37:14;4.40;;;3.92;;
80578;SDS011;69939;52.402;6.608;2023-05-10T07:39:41;5.07;;;3.60;;
80578;SDS011;69939;52.402;6.608;2023-05-10T07:42:08;3.90;;;3.22;;
80578;SDS011;69939;52.402;6.608;2023-05-10T07:44:34;4.47;;;3.78;;
80578;SDS011;69939;52.402;6.608;2023-05-10T07:47:01;5.72;;;4.40;;
80578;SDS011;69939;52.402;6.608;2023-05-10T07:49:28;4.25;;;3.83;;
80578;SDS011;69939;52.402;6.608;2023-05-10T07:51:54;4.25;;;3.65;;
80578;SDS011;69939;52.402;6.608;2023-05-10T07:54:23;4.47;;;3.75;;
80578;SDS011;69939;52.402;6.608;2023-05-10T07:56:50;4.57;;;3.50;;
80578;SDS011;69939;52.402;6.608;2023-05-10T07:59:17;4.80;;;3.38;;
80578;SDS011;69939;52.402;6.608;2023-05-10T08:01:45;5.30;;;4.10;;
80578;SDS011;69939;52.402;6.608;2023-05-10T08:04:12;4.85;;;3.50;;
80578;SDS011;69939;52.402;6.608;2023-05-10T08:06:39;3.90;;;3.03;;
80578;SDS011;69939;52.402;6.608;2023-05-10T08:09:05;4.85;;;3.92;;
80578;SDS011;69939;52.402;6.608;2023-05-10T08:11:34;4.30;;;3.90;;
80578;SDS011;69939;52.402;6.608;2023-05-10T08:14:01;4.22;;;2.60;;
80578;SDS011;69939;52.402;6.608;2023-05-10T08:16:27;5.13;;;3.95;;
80578;SDS011;69939;52.402;6.608;2023-05-10T08:18:54;4.88;;;3.53;;
80578;SDS011;69939;52.402;6.608;2023-05-10T08:21:21;3.25;;;2.70;;
80578;SDS011;69939;52.402;6.608;2023-05-10T08:23:48;3.20;;;1.90;;
80578;SDS011;69939;52.402;6.608;2023-05-10T08:26:17;3.35;;;2.42;;
80578;SDS011;69939;52.402;6.608;2023-05-10T08:28:45;4.57;;;2.92;;
80578;SDS011;69939;52.402;6.608;2023-05-10T08:31:12;3.22;;;2.58;;
80578;SDS011;69939;52.402;6.608;2023-05-10T08:33:39;5.78;;;3.55;;
80578;SDS011;69939;52.402;6.608;2023-05-10T08:36:05;3.38;;;2.60;;
80578;SDS011;69939;52.402;6.608;2023-05-10T08:38:32;4.95;;;3.30;;
80578;SDS011;69939;52.402;6.608;2023-05-10T08:40:59;4.22;;;3.20;;
80578;SDS011;69939;52.402;6.608;2023-05-10T08:43:28;6.03;;;3.15;;
80578;SDS011;69939;52.402;6.608;2023-05-10T08:45:57;4.15;;;2.08;;
80578;SDS011;69939;52.402;6.608;2023-05-10T08:48:27;4.00;;;2.85;;
80578;SDS011;69939;52.402;6.608;2023-05-10T08:50:56;4.82;;;3.08;;
80578;SDS011;69939;52.402;6.608;2023-05-10T08:53:27;4.15;;;2.95;;
80578;SDS011;69939;52.402;6.608;2023-05-10T08:55:56;6.80;;;4.30;;
80578;SDS011;69939;52.402;6.608;2023-05-10T08:58:24;11.00;;;6.07;;
80578;SDS011;69939;52.402;6.608;2023-05-10T09:00:51;7.78;;;4.07;;
80578;SDS011;69939;52.402;6.608;2023-05-10T09:03:20;7.85;;;4.38;;
80578;SDS011;69939;52.402;6.608;2023-05-10T09:05:47;10.50;;;5.85;;
80578;SDS011;69939;52.402;6.608;2023-05-10T09:08:15;10.77;;;5.38;;
80578;SDS011;69939;52.402;6.608;2023-05-10T09:10:43;9.98;;;5.85;;
80578;SDS011;69939;52.402;6.608;2023-05-10T09:13:12;8.50;;;4.32;;
80578;SDS011;69939;52.402;6.608;2023-05-10T09:15:41;7.57;;;4.85;;
80578;SDS011;69939;52.402;6.608;2023-05-10T09:18:10;7.88;;;5.20;;
80578;SDS011;69939;52.402;6.608;2023-05-10T09:20:41;9.02;;;5.18;;
80578;SDS011;69939;52.402;6.608;2023-05-10T09:23:09;10.52;;;5.32;;
80578;SDS011;69939;52.402;6.608;2023-05-10T09:25:35;10.13;;;4.68;;
80578;SDS011;69939;52.402;6.608;2023-05-10T09:28:05;7.50;;;2.95;;
80578;SDS011;69939;52.402;6.608;2023-05-10T09:30:34;5.75;;;3.38;;
80578;SDS011;69939;52.402;6.608;2023-05-10T09:33:01;13.00;;;5.97;;
80578;SDS011;69939;52.402;6.608;2023-05-10T09:35:29;8.98;;;4.63;;
80578;SDS011;69939;52.402;6.608;2023-05-10T09:37:58;10.60;;;4.55;;
80578;SDS011;69939;52.402;6.608;2023-05-10T09:40:29;8.50;;;4.45;;
80578;SDS011;69939;52.402;6.608;2023-05-10T09:42:57;7.13;;;4.38;;
80578;SDS011;69939;52.402;6.608;2023-05-10T09:45:27;8.55;;;5.18;;
80578;SDS011;69939;52.402;6.608;2023-05-10T09:47:55;8.25;;;4.88;;
80578;SDS011;69939;52.402;6.608;2023-05-10T09:50:23;8.68;;;4.28;;
80578;SDS011;69939;52.402;6.608;2023-05-10T09:52:52;5.53;;;3.63;;
80578;SDS011;69939;52.402;6.608;2023-05-10T09:55:25;5.90;;;3.40;;
80578;SDS011;69939;52.402;6.608;2023-05-10T09:58:04;5.95;;;3.65;;
80578;SDS011;69939;52.402;6.608;2023-05-10T10:00:35;6.88;;;3.38;;
80578;SDS011;69939;52.402;6.608;2023-05-10T10:03:03;6.78;;;3.95;;
80578;SDS011;69939;52.402;6.608;2023-05-10T10:05:30;4.72;;;3.33;;
80578;SDS011;69939;52.402;6.608;2023-05-10T10:07:58;6.40;;;3.45;;
80578;SDS011;69939;52.402;6.608;2023-05-10T10:10:29;7.43;;;4.07;;
80578;SDS011;69939;52.402;6.608;2023-05-10T10:12:58;6.65;;;3.25;;
80578;SDS011;69939;52.402;6.608;2023-05-10T10:15:26;5.60;;;3.33;;
80578;SDS011;69939;52.402;6.608;2023-05-10T10:17:52;4.50;;;3.20;;
80578;SDS011;69939;52.402;6.608;2023-05-10T10:20:20;5.88;;;3.35;;
80578;SDS011;69939;52.402;6.608;2023-05-10T10:22:50;4.15;;;3.17;;
80578;SDS011;69939;52.402;6.608;2023-05-10T10:25:17;3.90;;;2.60;;
80578;SDS011;69939;52.402;6.608;2023-05-10T10:27:49;5.32;;;2.75;;
80578;SDS011;69939;52.402;6.608;2023-05-10T10:30:35;3.70;;;2.33;;
80578;SDS011;69939;52.402;6.608;2023-05-10T10:33:22;4.18;;;1.95;;
80578;SDS011;69939;52.402;6.608;2023-05-10T10:36:02;5.00;;;2.60;;
80578;SDS011;69939;52.402;6.608;2023-05-10T10:38:37;2.25;;;1.20;;
80578;SDS011;69939;52.402;6.608;2023-05-10T10:41:27;4.05;;;1.73;;
80578;SDS011;69939;52.402;6.608;2023-05-10T10:47:01;4.80;;;2.47;;
80578;SDS011;69939;52.402;6.608;2023-05-10T10:49:34;2.58;;;1.75;;
80578;SDS011;69939;52.402;6.608;2023-05-10T10:52:21;4.32;;;2.28;;
80578;SDS011;69939;52.402;6.608;2023-05-10T10:54:54;2.85;;;2.30;;
80578;SDS011;69939;52.402;6.608;2023-05-10T10:57:26;3.90;;;1.95;;
80578;SDS011;69939;52.402;6.608;2023-05-10T11:02:56;3.25;;;1.90;;
80578;SDS011;69939;52.402;6.608;2023-05-10T11:08:12;4.03;;;2.00;;
80578;SDS011;69939;52.402;6.608;2023-05-10T11:13:33;7.57;;;3.20;;
80578;SDS011;69939;52.402;6.608;2023-05-10T11:16:13;6.15;;;3.15;;
80578;SDS011;69939;52.402;6.608;2023-05-10T11:18:54;4.25;;;2.67;;
80578;SDS011;69939;52.402;6.608;2023-05-10T11:21:26;3.35;;;2.08;;
80578;SDS011;69939;52.402;6.608;2023-05-10T11:23:55;4.10;;;3.05;;
80578;SDS011;69939;52.402;6.608;2023-05-10T11:26:24;3.30;;;2.30;;
80578;SDS011;69939;52.402;6.608;2023-05-10T11:28:57;4.45;;;3.10;;
80578;SDS011;69939;52.402;6.608;2023-05-10T11:31:28;7.03;;;3.38;;
80578;SDS011;69939;52.402;6.608;2023-05-10T11:33:57;4.50;;;3.00;;
80578;SDS011;69939;52.402;6.608;2023-05-10T11:36:27;7.05;;;3.20;;
80578;SDS011;69939;52.402;6.608;2023-05-10T11:38:56;4.45;;;2.90;;
80578;SDS011;69939;52.402;6.608;2023-05-10T11:41:23;5.78;;;2.35;;
80578;SDS011;69939;52.402;6.608;2023-05-10T11:43:53;5.72;;;2.50;;
80578;SDS011;69939;52.402;6.608;2023-05-10T11:46:21;4.43;;;2.70;;
80578;SDS011;69939;52.402;6.608;2023-05-10T11:48:51;4.75;;;2.85;;
80578;SDS011;69939;52.402;6.608;2023-05-10T11:51:20;5.68;;;3.10;;
80578;SDS011;69939;52.402;6.608;2023-05-10T11:53:48;4.60;;;2.63;;
80578;SDS011;69939;52.402;6.608;2023-05-10T11:56:17;4.05;;;2.70;;
80578;SDS011;69939;52.402;6.608;2023-05-10T11:58:49;5.50;;;2.75;;
80578;SDS011;69939;52.402;6.608;2023-05-10T12:01:21;4.97;;;1.80;;
80578;SDS011;69939;52.402;6.608;2023-05-10T12:03:51;4.15;;;2.53;;
80578;SDS011;69939;52.402;6.608;2023-05-10T12:06:20;2.42;;;1.63;;
80578;SDS011;69939;52.402;6.608;2023-05-10T12:08:48;3.05;;;2.33;;
80578;SDS011;69939;52.402;6.608;2023-05-10T12:11:17;4.32;;;3.22;;
80578;SDS011;69939;52.402;6.608;2023-05-10T12:13:45;3.85;;;2.28;;
80578;SDS011;69939;52.402;6.608;2023-05-10T12:16:13;5.63;;;3.55;;
80578;SDS011;69939;52.402;6.608;2023-05-10T12:18:41;4.53;;;3.08;;
80578;SDS011;69939;52.402;6.608;2023-05-10T12:21:10;5.07;;;3.17;;
80578;SDS011;69939;52.402;6.608;2023-05-10T12:23:40;5.03;;;3.33;;
80578;SDS011;69939;52.402;6.608;2023-05-10T12:26:08;5.32;;;3.35;;
80578;SDS011;69939;52.402;6.608;2023-05-10T12:28:36;5.63;;;3.70;;
80578;SDS011;69939;52.402;6.608;2023-05-10T12:31:05;4.50;;;2.95;;
80578;SDS011;69939;52.402;6.608;2023-05-10T12:33:35;4.47;;;3.03;;
80578;SDS011;69939;52.402;6.608;2023-05-10T12:36:06;5.25;;;3.22;;
80578;SDS011;69939;52.402;6.608;2023-05-10T12:38:36;4.00;;;2.08;;
80578;SDS011;69939;52.402;6.608;2023-05-10T12:41:04;5.50;;;3.03;;
80578;SDS011;69939;52.402;6.608;2023-05-10T12:43:33;5.15;;;3.25;;
80578;SDS011;69939;52.402;6.608;2023-05-10T12:46:04;5.68;;;3.55;;
80578;SDS011;69939;52.402;6.608;2023-05-10T12:48:33;4.78;;;2.80;;
80578;SDS011;69939;52.402;6.608;2023-05-10T12:51:01;6.28;;;3.90;;
80578;SDS011;69939;52.402;6.608;2023-05-10T12:53:28;5.78;;;3.03;;
80578;SDS011;69939;52.402;6.608;2023-05-10T12:55:57;4.72;;;2.97;;
80578;SDS011;69939;52.402;6.608;2023-05-10T12:58:24;4.65;;;2.75;;
80578;SDS011;69939;52.402;6.608;2023-05-10T13:00:50;5.47;;;2.78;;
80578;SDS011;69939;52.402;6.608;2023-05-10T13:03:17;4.90;;;3.35;;
80578;SDS011;69939;52.402;6.608;2023-05-10T13:05:47;5.15;;;2.90;;
80578;SDS011;69939;52.402;6.608;2023-05-10T13:08:16;4.57;;;2.75;;
80578;SDS011;69939;52.402;6.608;2023-05-10T13:10:42;5.97;;;3.10;;
80578;SDS011;69939;52.402;6.608;2023-05-10T13:13:13;4.40;;;2.97;;
80578;SDS011;69939;52.402;6.608;2023-05-10T13:15:44;3.90;;;2.42;;
80578;SDS011;69939;52.402;6.608;2023-05-10T13:18:11;5.13;;;3.17;;
80578;SDS011;69939;52.402;6.608;2023-05-10T13:20:38;5.07;;;3.85;;
80578;SDS011;69939;52.402;6.608;2023-05-10T13:23:05;6.45;;;3.83;;
80578;SDS011;69939;52.402;6.608;2023-05-10T13:25:31;6.00;;;4.20;;
80578;SDS011;69939;52.402;6.608;2023-05-10T13:27:59;5.25;;;3.63;;
80578;SDS011;69939;52.402;6.608;2023-05-10T13:30:27;5.18;;;3.70;;
80578;SDS011;69939;52.402;6.608;2023-05-10T13:32:54;6.53;;;4.45;;
80578;SDS011;69939;52.402;6.608;2023-05-10T13:35:21;4.28;;;2.92;;
80578;SDS011;69939;52.402;6.608;2023-05-10T13:37:48;6.40;;;3.10;;
80578;SDS011;69939;52.402;6.608;2023-05-10T13:40:15;6.95;;;3.70;;
80578;SDS011;69939;52.402;6.608;2023-05-10T13:42:41;4.68;;;2.55;;
80578;SDS011;69939;52.402;6.608;2023-05-10T13:45:08;6.22;;;3.63;;
80578;SDS011;69939;52.402;6.608;2023-05-10T13:47:38;9.55;;;3.70;;
80578;SDS011;69939;52.402;6.608;2023-05-10T13:50:06;7.18;;;3.85;;
80578;SDS011;69939;52.402;6.608;2023-05-10T13:52:34;6.88;;;3.78;;
80578;SDS011;69939;52.402;6.608;2023-05-10T13:55:01;6.72;;;3.47;;
80578;SDS011;69939;52.402;6.608;2023-05-10T13:57:28;6.80;;;4.40;;
80578;SDS011;69939;52.402;6.608;2023-05-10T13:59:55;7.38;;;4.28;;
80578;SDS011;69939;52.402;6.608;2023-05-10T14:02:22;7.85;;;4.63;;
80578;SDS011;69939;52.402;6.608;2023-05-10T14:04:50;8.43;;;4.75;;
80578;SDS011;69939;52.402;6.608;2023-05-10T14:07:17;8.13;;;4.80;;
80578;SDS011;69939;52.402;6.608;2023-05-10T14:09:47;7.50;;;5.03;;
80578;SDS011;69939;52.402;6.608;2023-05-10T14:12:17;8.40;;;4.57;;
80578;SDS011;69939;52.402;6.608;2023-05-10T14:14:47;8.07;;;4.60;;
80578;SDS011;69939;52.402;6.608;2023-05-10T14:17:13;8.82;;;5.13;;
80578;SDS011;69939;52.402;6.608;2023-05-10T14:19:43;9.40;;;5.57;;
80578;SDS011;69939;52.402;6.608;2023-05-10T14:22:11;6.00;;;4.07;;
80578;SDS011;69939;52.402;6.608;2023-05-10T14:24:37;7.97;;;4.47;;
80578;SDS011;69939;52.402;6.608;2023-05-10T14:27:04;5.70;;;4.03;;
80578;SDS011;69939;52.402;6.608;2023-05-10T14:29:31;7.30;;;4.55;;
80578;SDS011;69939;52.402;6.608;2023-05-10T14:31:58;7.68;;;4.60;;
80578;SDS011;69939;52.402;6.608;2023-05-10T14:34:25;4.95;;;3.22;;
80578;SDS011;69939;52.402;6.608;2023-05-10T14:36:52;9.25;;;3.97;;
80578;SDS011;69939;52.402;6.608;2023-05-10T14:39:20;6.35;;;3.72;;
80578;SDS011;69939;52.402;6.608;2023-05-10T14:41:47;6.00;;;3.55;;
80578;SDS011;69939;52.402;6.608;2023-05-10T14:44:16;5.82;;;2.95;;
80578;SDS011;69939;52.402;6.608;2023-05-10T14:46:43;7.10;;;4.65;;
80578;SDS011;69939;52.402;6.608;2023-05-10T14:49:13;7.43;;;3.75;;
80578;SDS011;69939;52.402;6.608;2023-05-10T14:51:40;5.93;;;3.55;;
80578;SDS011;69939;52.402;6.608;2023-05-10T14:54:06;7.38;;;4.18;;
80578;SDS011;69939;52.402;6.608;2023-05-10T14:56:37;7.65;;;3.88;;
80578;SDS011;69939;52.402;6.608;2023-05-10T14:59:03;5.78;;;3.72;;
80578;SDS011;69939;52.402;6.608;2023-05-10T15:01:30;6.05;;;3.70;;
80578;SDS011;69939;52.402;6.608;2023-05-10T15:03:58;5.82;;;3.65;;
80578;SDS011;69939;52.402;6.608;2023-05-10T15:06:30;6.18;;;3.58;;
80578;SDS011;69939;52.402;6.608;2023-05-10T15:08:57;7.03;;;4.07;;
80578;SDS011;69939;52.402;6.608;2023-05-10T15:11:25;7.47;;;3.83;;
80578;SDS011;69939;52.402;6.608;2023-05-10T15:13:53;6.60;;;3.50;;
80578;SDS011;69939;52.402;6.608;2023-05-10T15:16:19;8.20;;;4.35;;